createdAt,value
2018-07-05T00:00:11.660Z,23.85
2018-07-05T00:01:11.826Z,23.83
2018-07-05T00:02:12.015Z,23.87
2018-07-05T00:03:12.180Z,23.85
2018-07-05T00:04:12.350Z,23.84
2018-07-05T00:05:12.519Z,23.79
2018-07-05T00:06:12.693Z,23.73
2018-07-05T00:07:12.861Z,23.69
2018-07-05T00:08:13.032Z,23.66
2018-07-05T00:09:13.212Z,23.55
2018-07-05T00:10:13.379Z,23.63
2018-07-05T00:11:13.559Z,23.66
2018-07-05T00:12:13.734Z,23.70
2018-07-05T00:13:13.899Z,23.65
2018-07-05T00:14:14.073Z,23.70
2018-07-05T00:15:14.244Z,23.57
2018-07-05T00:16:14.415Z,23.65
2018-07-05T00:17:14.584Z,23.60
2018-07-05T00:18:14.758Z,23.60
2018-07-05T00:19:14.931Z,23.66
2018-07-05T00:20:15.109Z,23.58
2018-07-05T00:21:15.287Z,23.60
2018-07-05T00:22:15.455Z,23.69
2018-07-05T00:23:15.620Z,23.47
2018-07-05T00:24:15.793Z,23.33
2018-07-05T00:25:15.967Z,23.16
2018-07-05T00:26:16.127Z,22.92
2018-07-05T00:27:16.297Z,22.75
2018-07-05T00:28:16.474Z,22.79
2018-07-05T00:29:16.642Z,22.70
2018-07-05T00:30:16.816Z,22.67
2018-07-05T00:31:16.988Z,22.70
2018-07-05T00:33:50.263Z,22.75
2018-07-05T00:34:50.442Z,22.60
2018-07-05T00:35:50.624Z,22.60
2018-07-05T00:36:50.809Z,22.57
2018-07-05T00:37:50.982Z,22.62
2018-07-05T00:38:51.174Z,22.67
2018-07-05T00:39:51.349Z,22.65
2018-07-05T00:40:51.523Z,22.76
2018-07-05T00:41:51.728Z,22.92
2018-07-05T00:42:51.886Z,22.76
2018-07-05T00:43:52.054Z,22.83
2018-07-05T00:44:52.222Z,22.80
2018-07-05T00:45:52.396Z,22.83
2018-07-05T00:46:52.563Z,22.80
2018-07-05T00:47:52.736Z,22.88
2018-07-05T00:48:52.899Z,22.86
2018-07-05T00:49:53.073Z,22.82
2018-07-05T00:50:53.243Z,22.79
2018-07-05T00:51:53.416Z,22.75
2018-07-05T00:52:53.585Z,22.72
2018-07-05T00:53:53.754Z,22.64
2018-07-05T00:54:53.924Z,22.67
2018-07-05T00:55:54.153Z,22.72
2018-07-05T00:56:54.268Z,22.72
2018-07-05T00:57:54.432Z,22.65
2018-07-05T00:58:54.605Z,22.62
2018-07-05T00:59:54.775Z,22.64
2018-07-05T01:00:54.949Z,22.62
2018-07-05T01:01:55.126Z,22.62
2018-07-05T01:02:55.291Z,22.60
2018-07-05T01:03:55.458Z,22.57
2018-07-05T01:04:55.631Z,22.65
2018-07-05T01:05:55.804Z,22.49
2018-07-05T01:06:55.975Z,22.64
2018-07-05T01:07:56.142Z,22.52
2018-07-05T01:08:56.316Z,22.55
2018-07-05T01:09:56.486Z,22.51
2018-07-05T01:10:56.657Z,22.61
2018-07-05T01:11:56.830Z,22.61
2018-07-05T01:12:56.994Z,22.55
2018-07-05T01:13:57.165Z,22.62
2018-07-05T01:14:57.346Z,22.65
2018-07-05T01:15:57.510Z,22.52
2018-07-05T01:16:57.685Z,22.54
2018-07-05T01:17:57.855Z,22.60
2018-07-05T01:18:58.023Z,22.64
2018-07-05T01:19:58.196Z,22.55
2018-07-05T01:20:58.367Z,22.57
2018-07-05T01:21:58.537Z,22.62
2018-07-05T01:22:58.705Z,22.58
2018-07-05T01:23:58.875Z,22.60
2018-07-05T01:24:59.047Z,22.55
2018-07-05T01:25:59.213Z,22.55
2018-07-05T01:26:59.383Z,22.45
2018-07-05T01:27:59.558Z,22.37
2018-07-05T01:28:59.719Z,22.43
2018-07-05T01:29:59.887Z,22.36
2018-07-05T01:31:00.053Z,22.36
2018-07-05T01:32:00.227Z,22.43
2018-07-05T01:33:00.395Z,22.39
2018-07-05T01:34:00.563Z,22.36
2018-07-05T01:35:00.734Z,22.42
2018-07-05T01:36:00.906Z,22.37
2018-07-05T01:37:01.074Z,22.47
2018-07-05T01:38:01.241Z,22.37
2018-07-05T01:39:01.417Z,22.52
2018-07-05T01:40:01.583Z,22.45
2018-07-05T01:41:01.756Z,22.51
2018-07-05T01:42:01.934Z,22.54
2018-07-05T01:43:02.101Z,22.39
2018-07-05T01:44:02.271Z,22.27
2018-07-05T01:45:02.448Z,22.09
2018-07-05T01:46:02.611Z,21.96
2018-07-05T01:47:02.783Z,21.98
2018-07-05T01:48:02.956Z,22.00
2018-07-05T01:49:03.125Z,21.99
2018-07-05T01:50:03.296Z,21.90
2018-07-05T01:51:03.465Z,21.91
2018-07-05T01:52:03.633Z,21.94
2018-07-05T01:53:03.803Z,21.88
2018-07-05T01:54:03.976Z,21.82
2018-07-05T01:55:04.139Z,21.74
2018-07-05T01:56:04.315Z,21.82
2018-07-05T01:57:04.479Z,21.84
2018-07-05T01:58:04.649Z,21.86
2018-07-05T01:59:04.822Z,21.82
2018-07-05T02:00:04.991Z,21.91
2018-07-05T02:01:05.162Z,22.05
2018-07-05T02:02:05.332Z,22.03
2018-07-05T02:03:05.500Z,22.05
2018-07-05T02:04:05.665Z,22.10
2018-07-05T02:05:05.837Z,22.02
2018-07-05T02:06:06.006Z,22.05
2018-07-05T02:07:06.174Z,21.94
2018-07-05T02:08:06.340Z,21.92
2018-07-05T02:09:06.506Z,21.91
2018-07-05T02:10:06.676Z,22.03
2018-07-05T02:11:06.841Z,22.03
2018-07-05T02:12:07.012Z,21.92
2018-07-05T02:13:07.183Z,22.05
2018-07-05T02:14:07.351Z,22.07
2018-07-05T02:15:07.520Z,22.10
2018-07-05T02:16:07.690Z,22.03
2018-07-05T02:17:07.864Z,22.10
2018-07-05T02:18:08.034Z,22.05
2018-07-05T02:19:08.232Z,21.99
2018-07-05T02:20:08.379Z,22.12
2018-07-05T02:21:08.545Z,22.09
2018-07-05T02:22:08.714Z,22.00
2018-07-05T02:23:08.885Z,22.05
2018-07-05T02:24:09.058Z,21.99
2018-07-05T02:25:09.227Z,21.91
2018-07-05T02:26:09.396Z,22.00
2018-07-05T02:27:09.613Z,22.03
2018-07-05T02:28:09.735Z,21.99
2018-07-05T02:29:09.906Z,21.88
2018-07-05T02:30:10.072Z,21.65
2018-07-05T02:31:10.242Z,21.58
2018-07-05T02:32:10.411Z,21.42
2018-07-05T02:33:10.585Z,21.32
2018-07-05T02:34:10.754Z,21.35
2018-07-05T02:35:10.925Z,21.35
2018-07-05T02:36:11.096Z,21.34
2018-07-05T02:37:11.269Z,21.37
2018-07-05T02:38:11.439Z,21.32
2018-07-05T02:39:11.605Z,21.32
2018-07-05T02:40:11.777Z,21.24
2018-07-05T02:41:11.949Z,21.21
2018-07-05T02:42:12.113Z,21.25
2018-07-05T02:43:12.291Z,21.28
2018-07-05T02:44:12.457Z,21.38
2018-07-05T02:45:12.624Z,21.35
2018-07-05T02:46:12.799Z,21.32
2018-07-05T02:47:12.962Z,21.22
2018-07-05T02:48:13.132Z,21.25
2018-07-05T02:49:13.299Z,21.27
2018-07-05T02:50:13.467Z,21.25
2018-07-05T02:51:13.636Z,21.28
2018-07-05T02:52:13.803Z,21.25
2018-07-05T02:53:13.969Z,21.32
2018-07-05T02:54:14.138Z,21.27
2018-07-05T02:55:14.318Z,21.34
2018-07-05T02:56:14.483Z,21.35
2018-07-05T02:57:14.654Z,21.34
2018-07-05T02:58:14.819Z,21.28
2018-07-05T02:59:14.995Z,21.34
2018-07-05T03:00:15.165Z,21.29
2018-07-05T03:01:15.334Z,21.27
2018-07-05T03:02:15.503Z,21.24
2018-07-05T03:03:15.672Z,21.25
2018-07-05T03:04:15.835Z,21.16
2018-07-05T03:05:16.045Z,21.19
2018-07-05T03:06:16.175Z,21.24
2018-07-05T03:07:16.345Z,21.14
2018-07-05T03:08:16.514Z,21.13
2018-07-05T03:09:16.677Z,21.04
2018-07-05T03:10:16.849Z,21.04
2018-07-05T03:11:17.017Z,20.97
2018-07-05T03:12:17.187Z,20.79
2018-07-05T03:13:17.359Z,20.79
2018-07-05T03:14:17.529Z,20.82
2018-07-05T03:15:17.703Z,20.76
2018-07-05T03:16:17.864Z,20.84
2018-07-05T03:17:18.038Z,20.80
2018-07-05T03:18:18.207Z,20.85
2018-07-05T03:19:18.374Z,20.89
2018-07-05T03:20:18.549Z,20.85
2018-07-05T03:21:18.721Z,20.85
2018-07-05T03:22:18.888Z,20.80
2018-07-05T03:23:19.058Z,20.76
2018-07-05T03:24:19.220Z,20.84
2018-07-05T03:25:19.400Z,20.85
2018-07-05T03:26:19.568Z,20.87
2018-07-05T03:27:19.737Z,20.80
2018-07-05T03:28:19.908Z,20.72
2018-07-05T03:29:20.076Z,20.73
2018-07-05T03:30:20.244Z,20.70
2018-07-05T03:31:20.417Z,20.69
2018-07-05T03:32:20.587Z,20.70
2018-07-05T03:33:20.760Z,20.76
2018-07-05T03:34:20.928Z,20.84
2018-07-05T03:35:21.098Z,20.85
2018-07-05T03:36:21.266Z,20.77
2018-07-05T03:37:21.443Z,20.79
2018-07-05T03:38:21.614Z,20.88
2018-07-05T03:39:21.789Z,20.97
2018-07-05T03:40:21.954Z,21.01
2018-07-05T03:41:22.128Z,21.07
2018-07-05T03:42:22.300Z,21.21
2018-07-05T03:43:22.467Z,21.14
2018-07-05T03:44:22.631Z,21.21
2018-07-05T03:45:22.806Z,21.21
2018-07-05T03:46:22.976Z,21.14
2018-07-05T03:47:23.152Z,21.13
2018-07-05T03:48:23.315Z,21.21
2018-07-05T03:49:23.488Z,21.25
2018-07-05T03:50:23.658Z,21.31
2018-07-05T03:51:23.827Z,21.32
2018-07-05T03:52:23.994Z,21.46
2018-07-05T03:53:24.164Z,21.46
2018-07-05T03:54:24.341Z,21.50
2018-07-05T03:55:24.516Z,21.44
2018-07-05T03:56:24.686Z,21.49
2018-07-05T03:57:24.853Z,21.43
2018-07-05T03:58:25.024Z,21.38
2018-07-05T03:59:25.224Z,21.49
2018-07-05T04:00:25.367Z,21.49
2018-07-05T04:01:25.532Z,21.49
2018-07-05T04:02:25.709Z,21.58
2018-07-05T04:03:25.884Z,21.65
2018-07-05T04:04:26.080Z,21.75
2018-07-05T04:05:26.228Z,21.82
2018-07-05T04:06:26.394Z,21.80
2018-07-05T04:07:26.567Z,21.88
2018-07-05T04:08:26.734Z,21.79
2018-07-05T04:09:26.902Z,21.82
2018-07-05T04:10:27.073Z,22.02
2018-07-05T04:11:27.247Z,21.92
2018-07-05T04:12:27.420Z,21.91
2018-07-05T04:13:27.592Z,21.82
2018-07-05T04:14:27.762Z,21.64
2018-07-05T04:15:27.931Z,21.61
2018-07-05T04:16:28.102Z,21.58
2018-07-05T04:17:28.273Z,21.44
2018-07-05T04:18:28.444Z,21.42
2018-07-05T04:19:28.618Z,21.34
2018-07-05T04:20:28.784Z,21.32
2018-07-05T04:21:28.958Z,21.32
2018-07-05T04:22:29.127Z,21.29
2018-07-05T04:23:29.298Z,21.13
2018-07-05T04:24:29.469Z,21.10
2018-07-05T04:25:29.637Z,21.06
2018-07-05T04:26:29.809Z,21.03
2018-07-05T04:27:29.973Z,20.95
2018-07-05T04:28:30.147Z,21.13
2018-07-05T04:29:30.317Z,21.10
2018-07-05T04:30:30.488Z,21.07
2018-07-05T04:31:30.656Z,21.12
2018-07-05T04:32:30.826Z,21.07
2018-07-05T04:33:30.992Z,21.07
2018-07-05T04:34:31.167Z,21.13
2018-07-05T04:35:31.339Z,21.09
2018-07-05T04:36:31.512Z,21.13
2018-07-05T04:37:31.677Z,21.16
2018-07-05T04:38:31.861Z,21.28
2018-07-05T04:39:32.017Z,21.25
2018-07-05T04:40:32.188Z,21.31
2018-07-05T04:41:32.353Z,21.40
2018-07-05T04:42:32.547Z,21.46
2018-07-05T04:43:32.693Z,21.50
2018-07-05T04:44:32.869Z,21.56
2018-07-05T04:45:33.043Z,21.58
2018-07-05T04:46:33.214Z,21.62
2018-07-05T04:47:33.391Z,21.68
2018-07-05T04:48:33.567Z,21.72
2018-07-05T04:49:33.735Z,21.64
2018-07-05T04:50:33.911Z,21.61
2018-07-05T04:51:34.077Z,21.44
2018-07-05T04:52:34.247Z,21.42
2018-07-05T04:53:34.419Z,21.43
2018-07-05T04:54:34.602Z,21.34
2018-07-05T04:55:34.850Z,21.32
2018-07-05T04:56:34.934Z,21.28
2018-07-05T04:57:35.110Z,21.29
2018-07-05T04:58:35.288Z,21.19
2018-07-05T04:59:35.457Z,21.14
2018-07-05T05:00:35.628Z,21.19
2018-07-05T05:01:35.797Z,21.31
2018-07-05T05:02:35.972Z,21.17
2018-07-05T05:03:36.146Z,21.06
2018-07-05T05:04:36.313Z,21.10
2018-07-05T05:05:36.487Z,21.21
2018-07-05T05:06:36.661Z,21.21
2018-07-05T05:07:36.831Z,21.31
2018-07-05T05:08:37.016Z,21.28
2018-07-05T05:09:37.166Z,21.40
2018-07-05T05:10:37.334Z,21.46
2018-07-05T05:11:37.517Z,21.47
2018-07-05T05:12:37.685Z,21.53
2018-07-05T05:13:37.854Z,21.56
2018-07-05T05:14:38.025Z,21.67
2018-07-05T05:15:38.194Z,21.69
2018-07-05T05:16:38.360Z,21.74
2018-07-05T05:17:38.652Z,21.74
2018-07-05T05:18:38.736Z,21.77
2018-07-05T05:19:38.911Z,21.68
2018-07-05T05:20:39.091Z,21.62
2018-07-05T05:21:39.258Z,21.67
2018-07-05T05:22:39.428Z,21.72
2018-07-05T05:23:39.599Z,21.75
2018-07-05T05:24:39.769Z,21.72
2018-07-05T05:25:39.935Z,21.82
2018-07-05T05:26:40.110Z,21.74
2018-07-05T05:27:40.292Z,21.79
2018-07-05T05:28:40.455Z,21.88
2018-07-05T05:29:40.626Z,21.80
2018-07-05T05:30:40.799Z,22.00
2018-07-05T05:31:40.972Z,22.02
2018-07-05T05:32:41.139Z,22.06
2018-07-05T05:33:41.316Z,22.15
2018-07-05T05:34:41.644Z,21.98
2018-07-05T05:35:41.688Z,22.14
2018-07-05T05:36:41.867Z,22.18
2018-07-05T05:37:42.079Z,22.20
2018-07-05T05:38:42.255Z,22.35
2018-07-05T05:39:42.428Z,22.51
2018-07-05T05:40:43.300Z,22.60
2018-07-05T05:41:42.756Z,22.60
2018-07-05T05:42:42.928Z,22.80
2018-07-05T05:43:43.099Z,22.79
2018-07-05T05:44:43.275Z,22.88
2018-07-05T05:45:43.454Z,22.79
2018-07-05T05:46:43.629Z,22.83
2018-07-05T05:47:43.846Z,22.92
2018-07-05T05:48:43.968Z,23.12
2018-07-05T05:49:44.139Z,23.07
2018-07-05T05:50:44.308Z,23.09
2018-07-05T05:51:44.485Z,23.05
2018-07-05T05:52:44.655Z,23.09
2018-07-05T05:53:44.828Z,23.20
2018-07-05T05:54:45.003Z,23.19
2018-07-05T05:55:45.168Z,23.22
2018-07-05T05:56:45.338Z,23.22
2018-07-05T05:57:45.512Z,23.31
2018-07-05T05:58:45.679Z,23.28
2018-07-05T05:59:45.853Z,23.15
2018-07-05T06:00:46.293Z,23.28
2018-07-05T06:01:46.273Z,23.20
2018-07-05T06:02:46.369Z,23.31
2018-07-05T06:03:46.549Z,23.38
2018-07-05T06:04:46.723Z,23.38
2018-07-05T06:05:46.896Z,23.65
2018-07-05T06:06:47.065Z,23.63
2018-07-05T06:07:47.234Z,23.85
2018-07-05T06:08:47.408Z,23.87
2018-07-05T06:09:47.579Z,23.79
2018-07-05T06:10:47.744Z,23.73
2018-07-05T06:11:47.924Z,23.72
2018-07-05T06:12:48.094Z,23.76
2018-07-05T06:13:48.270Z,23.87
2018-07-05T06:14:48.444Z,23.70
2018-07-05T06:15:48.629Z,23.69
2018-07-05T06:16:48.795Z,23.73
2018-07-05T06:17:48.966Z,23.78
2018-07-05T06:18:49.135Z,23.91
2018-07-05T06:19:49.310Z,23.95
2018-07-05T06:20:49.481Z,24.06
2018-07-05T06:21:49.649Z,24.15
2018-07-05T06:22:49.817Z,24.21
2018-07-05T06:23:49.989Z,24.22
2018-07-05T06:24:50.172Z,24.25
2018-07-05T06:25:50.341Z,24.31
2018-07-05T06:26:50.511Z,24.37
2018-07-05T06:27:50.689Z,24.37
2018-07-05T06:28:50.855Z,24.40
2018-07-05T06:29:51.029Z,24.50
2018-07-05T06:30:51.194Z,24.60
2018-07-05T06:31:51.369Z,24.61
2018-07-05T06:32:51.549Z,24.57
2018-07-05T06:33:51.718Z,24.61
2018-07-05T06:34:51.887Z,24.60
2018-07-05T06:35:52.058Z,24.61
2018-07-05T06:36:52.236Z,24.61
2018-07-05T06:37:52.405Z,24.76
2018-07-05T06:38:52.580Z,24.78
2018-07-05T06:39:52.753Z,24.96
2018-07-05T06:40:52.920Z,25.03
2018-07-05T06:41:53.092Z,25.18
2018-07-05T06:42:53.266Z,25.10
2018-07-05T06:43:53.437Z,25.25
2018-07-05T06:44:53.608Z,25.35
2018-07-05T06:45:53.779Z,25.46
2018-07-05T06:46:53.952Z,25.50
2018-07-05T06:47:54.210Z,25.51
2018-07-05T06:48:54.270Z,25.58
2018-07-05T06:49:54.436Z,25.52
2018-07-05T06:50:54.608Z,25.54
2018-07-05T06:51:54.780Z,25.62
2018-07-05T06:52:54.981Z,25.62
2018-07-05T06:53:55.369Z,25.58
2018-07-05T06:54:55.288Z,25.64
2018-07-05T06:55:55.465Z,25.83
2018-07-05T06:56:55.641Z,25.77
2018-07-05T06:57:55.810Z,25.87
2018-07-05T06:58:55.987Z,25.99
2018-07-05T06:59:56.165Z,26.21
2018-07-05T07:00:56.331Z,26.12
2018-07-05T07:01:56.496Z,26.29
2018-07-05T07:02:56.678Z,26.32
2018-07-05T07:03:56.854Z,26.32
2018-07-05T07:04:57.036Z,26.36
2018-07-05T07:05:57.213Z,26.36
2018-07-05T07:06:57.388Z,26.51
2018-07-05T07:07:57.616Z,26.45
2018-07-05T07:08:57.748Z,26.60
2018-07-05T07:09:57.926Z,26.54
2018-07-05T07:10:58.104Z,26.63
2018-07-05T07:11:58.277Z,26.62
2018-07-05T07:12:58.495Z,26.70
2018-07-05T07:13:58.671Z,26.85
2018-07-05T07:14:58.844Z,26.94
2018-07-05T07:15:59.054Z,27.00
2018-07-05T07:16:59.196Z,27.06
2018-07-05T07:17:59.363Z,27.17
2018-07-05T07:18:59.544Z,27.10
2018-07-05T07:19:59.717Z,27.12
2018-07-05T07:20:59.892Z,27.13
2018-07-05T07:22:00.066Z,27.10
2018-07-05T07:23:00.230Z,27.21
2018-07-05T07:24:00.409Z,27.31
2018-07-05T07:25:00.576Z,27.34
2018-07-05T07:26:00.754Z,27.24
2018-07-05T07:27:00.934Z,27.22
2018-07-05T07:28:01.107Z,27.43
2018-07-05T07:29:01.292Z,27.37
2018-07-05T07:30:01.465Z,27.36
2018-07-05T07:31:01.638Z,27.39
2018-07-05T07:32:01.883Z,27.51
2018-07-05T07:33:01.988Z,27.60
2018-07-05T07:34:02.167Z,27.74
2018-07-05T07:35:02.338Z,27.70
2018-07-05T07:36:02.522Z,27.78
2018-07-05T07:37:02.692Z,27.94
2018-07-05T07:38:02.872Z,28.06
2018-07-05T07:39:03.046Z,28.21
2018-07-05T07:40:03.248Z,28.33
2018-07-05T07:41:03.379Z,28.29
2018-07-05T07:42:03.565Z,28.27
2018-07-05T07:43:03.732Z,28.41
2018-07-05T07:44:03.919Z,28.43
2018-07-05T07:45:04.096Z,28.40
2018-07-05T07:46:04.271Z,28.48
2018-07-05T07:47:04.443Z,28.64
2018-07-05T07:48:04.627Z,28.61
2018-07-05T07:49:04.802Z,28.66
2018-07-05T07:50:04.979Z,28.66
2018-07-05T07:51:05.152Z,28.43
2018-07-05T07:52:05.330Z,28.43
2018-07-05T07:53:05.508Z,28.46
2018-07-05T07:54:05.676Z,28.52
2018-07-05T07:55:05.858Z,28.64
2018-07-05T07:56:06.035Z,28.64
2018-07-05T07:57:06.213Z,28.67
2018-07-05T07:58:06.451Z,28.73
2018-07-05T07:59:06.557Z,28.76
2018-07-05T08:00:06.737Z,28.90
2018-07-05T08:01:06.918Z,28.76
2018-07-05T08:02:07.092Z,28.81
2018-07-05T08:03:07.267Z,28.83
2018-07-05T08:04:07.442Z,28.89
2018-07-05T08:05:07.614Z,28.81
2018-07-05T08:06:07.789Z,28.85
2018-07-05T08:07:07.975Z,28.98
2018-07-05T08:08:08.207Z,29.16
2018-07-05T08:09:08.324Z,29.24
2018-07-05T08:10:08.502Z,29.28
2018-07-05T08:11:08.676Z,29.23
2018-07-05T08:12:08.852Z,29.34
2018-07-05T08:13:09.030Z,29.34
2018-07-05T08:14:09.202Z,29.39
2018-07-05T08:15:09.463Z,29.31
2018-07-05T08:16:09.551Z,29.37
2018-07-05T08:17:09.730Z,29.53
2018-07-05T08:18:09.904Z,29.58
2018-07-05T08:19:10.089Z,29.64
2018-07-05T08:20:10.264Z,29.76
2018-07-05T08:21:10.440Z,29.71
2018-07-05T08:22:10.610Z,29.85
2018-07-05T08:23:10.784Z,29.90
2018-07-05T08:24:10.988Z,30.01
2018-07-05T08:25:11.127Z,29.90
2018-07-05T08:26:11.314Z,30.01
2018-07-05T08:27:11.485Z,29.98
2018-07-05T08:28:11.658Z,29.87
2018-07-05T08:29:11.839Z,29.76
2018-07-05T08:30:12.015Z,29.76
2018-07-05T08:31:12.237Z,30.00
2018-07-05T08:32:12.359Z,30.05
2018-07-05T08:33:12.533Z,30.16
2018-07-05T08:34:12.720Z,30.23
2018-07-05T08:35:12.891Z,30.39
2018-07-05T08:36:13.067Z,30.54
2018-07-05T08:37:13.369Z,30.61
2018-07-05T08:38:13.407Z,30.62
2018-07-05T08:39:13.589Z,30.45
2018-07-05T08:40:13.767Z,30.26
2018-07-05T08:41:13.947Z,30.23
2018-07-05T08:42:14.128Z,30.32
2018-07-05T08:43:14.305Z,30.43
2018-07-05T08:44:14.480Z,30.49
2018-07-05T08:45:14.657Z,30.64
2018-07-05T08:46:14.834Z,30.70
2018-07-05T08:47:15.010Z,30.80
2018-07-05T08:48:15.194Z,30.95
2018-07-05T08:49:15.356Z,31.14
2018-07-05T08:50:15.528Z,31.17
2018-07-05T08:51:15.822Z,31.02
2018-07-05T08:52:15.891Z,30.91
2018-07-05T08:53:16.069Z,31.10
2018-07-05T08:54:16.244Z,31.04
2018-07-05T08:55:16.419Z,30.88
2018-07-05T08:56:16.593Z,30.86
2018-07-05T08:57:16.764Z,31.10
2018-07-05T08:58:16.973Z,31.26
2018-07-05T08:59:17.143Z,31.46
2018-07-05T09:00:17.321Z,31.62
2018-07-05T09:01:17.503Z,31.72
2018-07-05T09:02:17.678Z,31.86
2018-07-05T09:03:17.856Z,31.80
2018-07-05T09:04:18.049Z,31.81
2018-07-05T09:05:18.245Z,32.03
2018-07-05T09:06:18.397Z,32.01
2018-07-05T09:07:18.573Z,32.08
2018-07-05T09:08:18.754Z,32.11
2018-07-05T09:09:18.919Z,32.01
2018-07-05T09:10:19.092Z,31.84
2018-07-05T09:11:19.273Z,31.70
2018-07-05T09:12:19.454Z,32.01
2018-07-05T09:13:19.628Z,31.88
2018-07-05T09:14:19.803Z,31.95
2018-07-05T09:15:19.986Z,32.06
2018-07-05T09:16:20.168Z,31.88
2018-07-05T09:17:20.342Z,31.88
2018-07-05T09:18:20.560Z,32.00
2018-07-05T09:19:20.715Z,32.45
2018-07-05T09:20:20.878Z,32.88
2018-07-05T09:21:21.054Z,33.00
2018-07-05T09:22:21.240Z,33.29
2018-07-05T09:23:21.442Z,33.66
2018-07-05T09:24:21.592Z,33.88
2018-07-05T09:25:21.888Z,34.05
2018-07-05T09:26:21.889Z,34.17
2018-07-05T09:27:22.141Z,34.12
2018-07-05T09:28:22.272Z,34.32
2018-07-05T09:29:22.448Z,34.66
2018-07-05T09:30:22.623Z,35.34
2018-07-05T09:31:22.808Z,35.09
2018-07-05T09:32:22.979Z,34.40
2018-07-05T09:33:23.160Z,33.97
2018-07-05T09:34:23.337Z,33.93
2018-07-05T09:35:23.509Z,33.84
2018-07-05T09:36:23.691Z,33.91
2018-07-05T09:37:23.924Z,35.47
2018-07-05T09:38:26.913Z,36.83
2018-07-05T09:39:24.217Z,37.18
2018-07-05T09:40:24.403Z,37.32
2018-07-05T09:41:24.575Z,36.84
2018-07-05T09:42:24.757Z,36.64
2018-07-05T09:43:24.936Z,37.76
2018-07-05T09:44:25.118Z,38.76
2018-07-05T09:45:25.296Z,38.72
2018-07-05T09:46:25.479Z,38.46
2018-07-05T09:47:25.658Z,37.78
2018-07-05T09:48:25.839Z,36.59
2018-07-05T09:49:26.022Z,35.75
2018-07-05T09:50:26.200Z,35.75
2018-07-05T09:51:26.374Z,36.68
2018-07-05T09:52:26.589Z,36.00
2018-07-05T09:53:26.865Z,35.16
2018-07-05T09:54:26.905Z,34.82
2018-07-05T09:55:28.264Z,34.27
2018-07-05T09:56:27.307Z,34.35
2018-07-05T09:57:27.489Z,34.39
2018-07-05T09:58:28.023Z,35.53
2018-07-05T09:59:27.848Z,36.49
2018-07-05T10:00:28.033Z,37.69
2018-07-05T10:01:28.208Z,37.91
2018-07-05T10:02:28.387Z,38.99
2018-07-05T10:03:28.586Z,39.66
2018-07-05T10:04:28.745Z,40.00
2018-07-05T10:05:31.066Z,40.19
2018-07-05T10:06:29.133Z,40.50
2018-07-05T10:07:29.311Z,40.08
2018-07-05T10:08:29.487Z,39.75
2018-07-05T10:09:29.674Z,39.35
2018-07-05T10:10:29.846Z,38.95
2018-07-05T10:11:30.039Z,39.16
2018-07-05T10:12:30.224Z,38.81
2018-07-05T10:13:30.509Z,38.54
2018-07-05T10:14:30.588Z,38.26
2018-07-05T10:15:30.779Z,37.88
2018-07-05T10:16:30.959Z,38.00
2018-07-05T10:17:31.149Z,38.19
2018-07-05T10:18:31.333Z,38.19
2018-07-05T10:19:31.561Z,38.42
2018-07-05T10:20:31.709Z,38.38
2018-07-05T10:21:31.893Z,38.74
2018-07-05T10:22:32.077Z,39.07
2018-07-05T10:23:32.256Z,39.25
2018-07-05T10:24:32.436Z,39.51
2018-07-05T10:25:32.621Z,39.47
2018-07-05T10:26:32.806Z,39.44
2018-07-05T10:27:32.993Z,38.84
2018-07-05T10:28:33.174Z,38.44
2018-07-05T10:29:33.424Z,38.25
2018-07-05T10:30:33.505Z,38.07
2018-07-05T10:31:33.689Z,38.19
2018-07-05T10:32:33.878Z,38.06
2018-07-05T10:33:34.112Z,38.00
2018-07-05T10:34:34.248Z,38.16
2018-07-05T10:35:34.424Z,38.00
2018-07-05T10:36:34.610Z,38.06
2018-07-05T10:37:34.792Z,37.98
2018-07-05T10:38:34.977Z,37.96
2018-07-05T10:39:35.176Z,37.81
2018-07-05T10:40:35.368Z,37.94
2018-07-05T10:41:35.559Z,37.93
2018-07-05T10:42:35.761Z,37.64
2018-07-05T10:43:35.952Z,37.63
2018-07-05T10:44:36.143Z,37.76
2018-07-05T10:45:36.324Z,37.67
2018-07-05T10:46:36.516Z,37.46
2018-07-05T10:47:36.704Z,37.34
2018-07-05T10:48:36.881Z,37.12
2018-07-05T10:49:37.086Z,36.68
2018-07-05T10:50:37.267Z,36.50
2018-07-05T10:51:37.448Z,36.43
2018-07-05T10:52:37.637Z,36.34
2018-07-05T10:53:37.827Z,36.47
2018-07-05T10:54:38.006Z,36.64
2018-07-05T10:55:38.183Z,36.93
2018-07-05T10:56:38.379Z,36.68
2018-07-05T10:57:38.548Z,36.38
2018-07-05T10:58:38.727Z,36.54
2018-07-05T10:59:38.905Z,36.34
2018-07-05T11:00:39.089Z,36.31
2018-07-05T11:01:39.270Z,36.23
2018-07-05T11:02:39.446Z,36.78
2018-07-05T11:03:39.632Z,37.06
2018-07-05T11:04:39.809Z,36.81
2018-07-05T11:05:39.993Z,37.20
2018-07-05T11:06:40.172Z,36.88
2018-07-05T11:07:40.347Z,36.73
2018-07-05T11:08:40.531Z,36.76
2018-07-05T11:09:40.725Z,36.68
2018-07-05T11:10:40.889Z,36.37
2018-07-05T11:11:41.073Z,36.13
2018-07-05T11:12:41.257Z,35.63
2018-07-05T11:13:41.443Z,36.03
2018-07-05T11:14:41.636Z,36.00
2018-07-05T11:15:41.795Z,36.32
2018-07-05T11:16:42.042Z,36.01
2018-07-05T11:17:42.154Z,36.37
2018-07-05T11:18:42.340Z,36.53
2018-07-05T11:19:42.521Z,36.31
2018-07-05T11:20:42.704Z,36.65
2018-07-05T11:21:42.889Z,36.76
2018-07-05T11:22:43.066Z,36.80
2018-07-05T11:23:43.247Z,37.05
2018-07-05T11:24:43.428Z,37.24
2018-07-05T11:25:43.610Z,37.34
2018-07-05T11:26:43.873Z,37.60
2018-07-05T11:27:43.932Z,37.81
2018-07-05T11:28:44.114Z,37.20
2018-07-05T11:29:44.294Z,36.87
2018-07-05T11:30:44.481Z,36.72
2018-07-05T11:31:44.663Z,37.10
2018-07-05T11:32:44.851Z,37.41
2018-07-05T11:33:45.029Z,37.21
2018-07-05T11:34:45.274Z,37.62
2018-07-05T11:35:45.338Z,37.67
2018-07-05T11:36:45.524Z,37.72
2018-07-05T11:37:45.709Z,37.96
2018-07-05T11:38:45.886Z,38.57
2018-07-05T11:39:46.064Z,39.07
2018-07-05T11:40:46.252Z,38.90
2018-07-05T11:41:46.435Z,39.10
2018-07-05T11:42:46.642Z,38.88
2018-07-05T11:43:46.803Z,39.64
2018-07-05T11:44:46.989Z,39.63
2018-07-05T11:45:47.173Z,39.72
2018-07-05T11:46:47.361Z,39.57
2018-07-05T11:47:47.565Z,39.47
2018-07-05T11:48:47.739Z,39.30
2018-07-05T11:49:47.929Z,39.70
2018-07-05T11:50:48.114Z,39.62
2018-07-05T11:51:48.298Z,40.26
2018-07-05T11:52:48.478Z,40.55
2018-07-05T11:53:48.668Z,40.72
2018-07-05T11:54:48.866Z,40.70
2018-07-05T11:55:49.074Z,41.47
2018-07-05T11:56:49.206Z,41.23
2018-07-05T11:57:49.398Z,40.53
2018-07-05T11:58:49.580Z,40.58
2018-07-05T11:59:49.766Z,40.00
2018-07-05T12:00:49.954Z,38.88
2018-07-05T12:01:50.142Z,38.74
2018-07-05T12:02:50.481Z,38.09
2018-07-05T12:03:50.566Z,38.34
2018-07-05T12:04:50.756Z,39.14
2018-07-05T12:05:50.936Z,39.11
2018-07-05T12:06:51.122Z,39.82
2018-07-05T12:07:51.314Z,40.62
2018-07-05T12:08:51.511Z,41.29
2018-07-05T12:09:51.695Z,41.07
2018-07-05T12:10:51.877Z,40.80
2018-07-05T12:11:52.062Z,39.98
2018-07-05T12:12:52.253Z,39.29
2018-07-05T12:13:52.447Z,38.75
2018-07-05T12:14:52.630Z,38.63
2018-07-05T12:15:52.818Z,39.28
2018-07-05T12:16:53.005Z,40.26
2018-07-05T12:17:53.193Z,41.01
2018-07-05T12:18:53.384Z,41.55
2018-07-05T12:19:53.577Z,40.82
2018-07-05T12:20:53.929Z,40.41
2018-07-05T12:21:53.953Z,39.98
2018-07-05T12:22:54.138Z,40.32
2018-07-05T12:23:54.338Z,39.52
2018-07-05T12:24:54.510Z,39.18
2018-07-05T12:25:54.694Z,38.83
2018-07-05T12:26:54.877Z,38.44
2018-07-05T12:27:55.088Z,38.26
2018-07-05T12:28:55.277Z,38.00
2018-07-05T12:29:55.460Z,37.94
2018-07-05T12:30:55.649Z,37.86
2018-07-05T12:31:55.841Z,37.64
2018-07-05T12:32:56.005Z,37.25
2018-07-05T12:33:56.194Z,37.21
2018-07-05T12:34:56.379Z,37.15
2018-07-05T12:35:56.575Z,37.03
2018-07-05T12:36:56.772Z,36.94
2018-07-05T12:37:56.954Z,36.76
2018-07-05T12:38:57.134Z,36.81
2018-07-05T12:39:57.316Z,36.60
2018-07-05T12:40:57.500Z,36.46
2018-07-05T12:41:57.726Z,36.35
2018-07-05T12:42:57.850Z,36.07
2018-07-05T12:43:58.055Z,35.74
2018-07-05T12:44:58.205Z,35.23
2018-07-05T12:45:58.389Z,35.19
2018-07-05T12:46:58.572Z,35.03
2018-07-05T12:47:58.750Z,34.82
2018-07-05T12:48:58.935Z,34.73
2018-07-05T12:49:59.125Z,34.44
2018-07-05T12:50:59.309Z,34.15
2018-07-05T12:51:59.559Z,33.82
2018-07-05T12:52:59.668Z,33.59
2018-07-05T12:53:59.841Z,33.44
2018-07-05T12:55:00.037Z,33.32
2018-07-05T12:56:00.218Z,33.21